createdAt,value
2022-08-29T03:48:20.047Z,15.40
2022-08-29T03:50:47.392Z,15.30
2022-08-29T03:53:14.445Z,15.30
2022-08-29T03:55:42.213Z,15.30
2022-08-29T03:58:09.467Z,15.30
2022-08-29T04:00:36.885Z,15.30
2022-08-29T04:03:04.491Z,15.30
2022-08-29T04:05:31.827Z,15.30
2022-08-29T04:08:00.230Z,15.30
2022-08-29T04:10:34.828Z,15.30
2022-08-29T04:13:02.871Z,15.30
2022-08-29T04:15:32.724Z,15.40
2022-08-29T04:18:02.030Z,15.40
2022-08-29T04:20:31.775Z,15.50
2022-08-29T04:23:00.077Z,15.40
2022-08-29T04:25:31.995Z,15.40
2022-08-29T04:28:01.676Z,15.40
2022-08-29T04:30:28.962Z,15.40
2022-08-29T04:32:56.446Z,15.30
2022-08-29T04:35:24.390Z,15.20
2022-08-29T04:37:51.723Z,15.20
2022-08-29T04:40:21.330Z,15.20
2022-08-29T04:42:49.986Z,15.20
2022-08-29T04:45:20.546Z,15.30
2022-08-29T04:47:47.974Z,15.30
2022-08-29T04:50:18.582Z,15.30
2022-08-29T04:52:46.072Z,15.30
2022-08-29T04:55:17.116Z,15.30
2022-08-29T04:57:46.800Z,15.20
2022-08-29T05:00:19.068Z,15.20
2022-08-29T05:02:46.907Z,15.30
2022-08-29T05:05:15.978Z,15.40
2022-08-29T05:07:43.944Z,15.40
2022-08-29T05:10:17.676Z,15.40
2022-08-29T05:12:45.774Z,15.40
2022-08-29T05:15:14.502Z,15.50
2022-08-29T05:17:41.950Z,15.50
2022-08-29T05:20:09.865Z,15.60
2022-08-29T05:22:39.169Z,15.60
2022-08-29T05:25:07.581Z,15.60
2022-08-29T05:27:34.630Z,15.60
2022-08-29T05:30:03.132Z,15.60
2022-08-29T05:32:30.429Z,15.70
2022-08-29T05:34:57.989Z,15.80
2022-08-29T05:37:25.487Z,15.80
2022-08-29T05:39:52.941Z,15.70
2022-08-29T05:42:22.497Z,15.90
2022-08-29T05:44:50.289Z,15.80
2022-08-29T05:47:19.520Z,15.90
2022-08-29T05:49:48.801Z,15.90
2022-08-29T05:52:18.455Z,16.00
2022-08-29T05:54:46.020Z,16.10
2022-08-29T05:57:18.957Z,16.30
2022-08-29T05:59:51.936Z,16.40
2022-08-29T06:02:21.013Z,16.50
2022-08-29T06:04:48.779Z,16.60
2022-08-29T06:07:15.986Z,16.70
2022-08-29T06:09:44.178Z,16.80
2022-08-29T06:12:13.722Z,17.00
2022-08-29T06:14:41.378Z,17.10
2022-08-29T06:17:17.555Z,17.10
2022-08-29T06:19:44.768Z,17.00
2022-08-29T06:22:11.806Z,17.10
2022-08-29T06:24:40.220Z,17.20
2022-08-29T06:27:13.314Z,17.20
2022-08-29T06:29:43.178Z,17.30
2022-08-29T06:32:12.210Z,17.50
2022-08-29T06:34:39.879Z,17.60
2022-08-29T06:37:07.101Z,17.90
2022-08-29T06:39:34.257Z,18.00
2022-08-29T06:42:01.662Z,18.10
2022-08-29T06:44:31.719Z,18.00
2022-08-29T06:46:59.622Z,18.00
2022-08-29T06:49:28.061Z,18.10
2022-08-29T06:51:58.296Z,18.10
2022-08-29T06:54:27.855Z,18.20
2022-08-29T06:56:57.056Z,18.40
2022-08-29T06:59:24.305Z,18.50
2022-08-29T07:01:51.811Z,18.50
2022-08-29T07:04:20.080Z,18.70
2022-08-29T07:06:48.974Z,18.80
2022-08-29T07:09:16.841Z,19.00
2022-08-29T07:11:44.414Z,19.10
2022-08-29T07:14:12.806Z,19.30
2022-08-29T07:16:41.272Z,19.30
2022-08-29T07:19:10.448Z,19.40
2022-08-29T07:21:38.216Z,19.60
2022-08-29T07:24:06.793Z,19.90
2022-08-29T07:26:39.131Z,20.00
2022-08-29T07:30:26.564Z,20.40
2022-08-29T07:32:53.623Z,20.60
2022-08-29T07:35:30.102Z,20.70
2022-08-29T07:38:03.900Z,20.80
2022-08-29T07:40:31.108Z,20.90
2022-08-29T07:42:58.555Z,21.00
2022-08-29T07:45:25.694Z,21.10
2022-08-29T07:47:53.083Z,21.20
2022-08-29T07:50:20.073Z,21.30
2022-08-29T07:52:48.605Z,21.50
2022-08-29T07:55:15.661Z,21.50
2022-08-29T07:57:42.720Z,21.80
2022-08-29T08:00:12.017Z,21.90
2022-08-29T08:02:41.754Z,22.10
2022-08-29T08:05:09.197Z,22.10
2022-08-29T08:07:36.809Z,22.10
2022-08-29T08:10:08.749Z,22.30
2022-08-29T08:12:35.908Z,22.40
2022-08-29T08:15:03.760Z,22.60
2022-08-29T08:17:30.827Z,22.30
2022-08-29T08:19:57.824Z,22.40
2022-08-29T08:22:24.843Z,22.40
2022-08-29T08:24:51.853Z,22.70
2022-08-29T08:27:18.905Z,22.90
2022-08-29T08:29:46.132Z,22.40
2022-08-29T08:32:13.413Z,22.50
2022-08-29T08:34:40.397Z,22.90
2022-08-29T08:37:08.415Z,23.20
2022-08-29T08:39:36.934Z,23.10
2022-08-29T08:42:42.701Z,23.40
2022-08-29T08:47:00.245Z,23.50
2022-08-29T08:50:16.134Z,23.80
2022-08-29T08:53:19.410Z,24.00
2022-08-29T08:55:54.504Z,24.00
2022-08-29T08:58:33.340Z,24.10
2022-08-29T09:01:16.066Z,24.00
2022-08-29T09:04:11.724Z,24.00
2022-08-29T09:07:20.492Z,24.30
2022-08-29T09:10:07.776Z,24.00
2022-08-29T09:13:19.535Z,24.30
2022-08-29T09:15:50.491Z,24.60
2022-08-29T09:18:35.226Z,24.10
2022-08-29T09:21:39.521Z,23.90
2022-08-29T09:24:06.024Z,23.90
2022-08-29T09:26:35.062Z,23.90
2022-08-29T09:29:02.062Z,24.30
2022-08-29T09:31:32.772Z,25.10
2022-08-29T09:34:06.683Z,24.90
2022-08-29T09:36:54.612Z,25.00
2022-08-29T09:39:28.640Z,24.20
2022-08-29T09:42:19.306Z,24.10
2022-08-29T09:45:08.788Z,24.50
2022-08-29T09:47:36.139Z,24.90
2022-08-29T09:50:20.161Z,24.30
2022-08-29T09:53:02.560Z,24.80
2022-08-29T09:55:42.464Z,25.40
2022-08-29T09:58:40.521Z,26.30
2022-08-29T10:01:17.641Z,25.80
2022-08-29T10:04:00.719Z,26.20
2022-08-29T10:06:32.332Z,27.10
2022-08-29T10:09:27.986Z,26.40
2022-08-29T10:12:08.079Z,25.90
2022-08-29T10:14:40.819Z,26.40
2022-08-29T10:17:58.727Z,26.90
2022-08-29T10:20:37.321Z,27.00
2022-08-29T10:23:17.517Z,27.50
2022-08-29T10:25:44.783Z,27.20
2022-08-29T10:28:43.968Z,27.40
2022-08-29T10:31:30.943Z,27.40
2022-08-29T10:34:21.950Z,27.50
2022-08-29T10:37:07.647Z,28.30
2022-08-29T10:40:03.342Z,28.20
2022-08-29T10:42:33.354Z,28.40
2022-08-29T10:45:28.411Z,28.70
2022-08-29T10:48:14.410Z,28.50
2022-08-29T10:51:09.152Z,29.10
2022-08-29T10:53:42.747Z,28.70
2022-08-29T10:56:33.769Z,28.30
2022-08-29T10:59:25.835Z,28.70
2022-08-29T11:02:19.279Z,29.20
2022-08-29T11:04:51.931Z,29.50
2022-08-29T11:07:36.844Z,29.30
2022-08-29T11:10:30.625Z,28.80
2022-08-29T11:13:10.426Z,29.40
2022-08-29T11:15:45.500Z,29.70
2022-08-29T11:18:48.444Z,30.30
2022-08-29T11:21:53.240Z,30.20
2022-08-29T11:24:29.723Z,31.00
2022-08-29T11:27:27.145Z,30.40
2022-08-29T11:30:02.698Z,28.90
2022-08-29T11:33:22.016Z,29.40
2022-08-29T11:36:17.477Z,29.60
2022-08-29T11:39:29.358Z,30.20
2022-08-29T11:42:01.371Z,30.60
2022-08-29T11:44:33.770Z,30.80
2022-08-29T11:47:40.463Z,30.50
2022-08-29T11:50:35.128Z,30.10
2022-08-29T11:53:33.826Z,29.10
2022-08-29T12:15:46.514Z,29.00
2022-08-29T12:18:36.601Z,32.20
2022-08-29T12:21:34.249Z,31.60
2022-08-29T12:24:01.797Z,31.80
2022-08-29T12:26:46.601Z,31.30
2022-08-29T12:29:31.201Z,31.80
2022-08-29T12:32:40.384Z,32.70
2022-08-29T12:35:54.515Z,31.40
2022-08-29T12:38:50.075Z,32.70
2022-08-29T12:41:51.297Z,32.70
2022-08-29T12:44:27.104Z,32.80
2022-08-29T12:47:02.420Z,32.40
2022-08-29T12:49:56.005Z,32.50
2022-08-29T12:52:31.711Z,32.20
2022-08-29T12:55:17.904Z,32.30
2022-08-29T12:57:50.165Z,31.40
2022-08-29T13:00:24.878Z,31.40
2022-08-29T13:03:14.880Z,31.70
2022-08-29T13:05:43.421Z,32.50
2022-08-29T13:08:15.243Z,32.80
2022-08-29T13:11:00.293Z,32.10
2022-08-29T13:13:28.508Z,33.40
2022-08-29T13:16:00.433Z,33.50
2022-08-29T13:18:29.420Z,33.80
2022-08-29T13:21:33.474Z,34.10
2022-08-29T13:24:21.196Z,34.20
2022-08-29T13:27:05.717Z,33.20
2022-08-29T13:29:42.039Z,31.90
2022-08-29T13:32:26.998Z,33.60
2022-08-29T13:35:28.704Z,33.20
2022-08-29T13:38:30.946Z,32.90
2022-08-29T13:40:59.019Z,33.50
2022-08-29T13:43:44.899Z,33.00
2022-08-29T13:46:19.203Z,34.10
2022-08-29T13:48:46.684Z,32.70
2022-08-29T13:51:13.792Z,33.80
2022-08-29T13:53:45.337Z,34.10
2022-08-29T13:56:33.363Z,34.10
2022-08-29T13:59:00.638Z,33.80
2022-08-29T14:02:07.174Z,33.80
2022-08-29T14:04:36.830Z,33.80
2022-08-29T14:07:02.706Z,33.70
2022-08-29T14:09:34.571Z,33.60
2022-08-29T14:12:02.521Z,33.30
2022-08-29T14:14:29.561Z,33.80
2022-08-29T14:16:57.073Z,33.50
2022-08-29T14:19:25.011Z,33.80
2022-08-29T14:21:52.210Z,35.40
2022-08-29T14:24:19.293Z,35.10
2022-08-29T14:26:48.822Z,34.70
2022-08-29T14:29:27.261Z,35.40
2022-08-29T14:31:58.473Z,34.20
2022-08-29T14:34:30.857Z,34.10
2022-08-29T14:37:00.961Z,34.80
2022-08-29T14:39:28.426Z,34.70
2022-08-29T14:41:55.985Z,35.90
2022-08-29T14:44:23.711Z,36.60
2022-08-29T14:46:51.298Z,35.50
2022-08-29T14:49:19.137Z,36.10
2022-08-29T14:51:46.295Z,36.20
2022-08-29T14:54:13.394Z,36.80
2022-08-29T14:56:49.934Z,36.30
2022-08-29T14:59:19.318Z,36.50
2022-08-29T15:01:53.803Z,36.30
2022-08-29T15:04:36.055Z,35.50
2022-08-29T15:07:07.607Z,36.20
2022-08-29T15:09:35.026Z,37.30
2022-08-29T15:12:02.534Z,37.50
2022-08-29T15:14:29.901Z,37.60
2022-08-29T15:16:56.956Z,37.60
2022-08-29T15:19:53.766Z,37.20
2022-08-29T15:22:12.356Z,38.90
2022-08-29T15:24:39.979Z,38.40
2022-08-29T15:27:07.761Z,38.50
2022-08-29T15:29:37.452Z,38.00
2022-08-29T15:32:05.684Z,38.50
2022-08-29T15:34:33.809Z,38.60
2022-08-29T15:37:01.723Z,39.00
2022-08-29T15:39:29.041Z,37.80
2022-08-29T15:41:57.635Z,38.20
2022-08-29T15:44:25.401Z,37.50
2022-08-29T15:46:52.648Z,38.10
2022-08-29T15:49:21.595Z,37.10
2022-08-29T15:51:49.383Z,37.00
2022-08-29T15:54:16.890Z,36.70
2022-08-29T15:56:44.219Z,35.70
2022-08-29T15:59:13.205Z,35.40
2022-08-29T16:01:44.834Z,34.00
2022-08-29T16:04:12.928Z,34.20
2022-08-29T16:06:40.310Z,35.10
2022-08-29T16:09:15.914Z,36.10
2022-08-29T16:11:52.117Z,35.60
2022-08-29T16:17:08.423Z,34.40
2022-08-29T16:19:41.864Z,33.00
2022-08-29T16:22:09.449Z,33.50
2022-08-29T16:24:36.520Z,32.90
2022-08-29T16:27:03.831Z,32.40
2022-08-29T16:29:31.507Z,33.40
2022-08-29T16:31:58.724Z,32.90
2022-08-29T16:34:27.859Z,32.50
2022-08-29T16:36:59.565Z,32.90
2022-08-29T16:39:27.651Z,33.50
2022-08-29T16:41:55.182Z,33.30
2022-08-29T16:44:22.792Z,33.80
2022-08-29T16:46:49.898Z,34.80
2022-08-29T16:49:16.944Z,34.50
2022-08-29T16:51:43.983Z,34.30
2022-08-29T16:54:12.462Z,34.10
2022-08-29T16:56:39.870Z,33.30
2022-08-29T16:59:07.616Z,32.40
2022-08-29T17:01:43.682Z,31.60
2022-08-29T17:04:20.271Z,31.80
2022-08-29T17:06:48.248Z,31.60
2022-08-29T17:09:17.616Z,31.00
2022-08-29T17:11:45.060Z,30.50
2022-08-29T17:14:13.241Z,29.60
2022-08-29T17:16:42.574Z,28.70
2022-08-29T17:19:09.923Z,28.20
2022-08-29T17:21:37.019Z,27.80
2022-08-29T17:24:06.881Z,27.30
2022-08-29T17:26:40.749Z,26.90
2022-08-29T17:29:08.777Z,26.90
2022-08-29T17:31:39.131Z,27.80
2022-08-29T17:34:07.912Z,28.40
2022-08-29T17:36:36.732Z,27.50
2022-08-29T17:39:05.339Z,27.90
2022-08-29T17:41:33.654Z,28.30
2022-08-29T17:44:02.234Z,28.50
2022-08-29T17:46:29.733Z,28.20
2022-08-29T17:52:46.994Z,27.50
2022-08-29T17:55:14.516Z,27.50
2022-08-29T17:57:41.553Z,26.90
2022-08-29T18:00:09.730Z,26.50
2022-08-29T18:02:39.489Z,25.80
2022-08-29T18:05:10.059Z,25.20
2022-08-29T18:07:39.402Z,24.90
2022-08-29T18:12:35.217Z,24.70
2022-08-29T18:15:03.445Z,24.40
2022-08-29T18:17:32.192Z,24.20
2022-08-29T18:20:01.374Z,24.10
2022-08-29T18:22:29.556Z,23.90
2022-08-29T18:24:57.918Z,23.90
2022-08-29T18:27:26.091Z,23.80
2022-08-29T18:29:54.123Z,23.60
2022-08-29T18:32:23.516Z,23.50
2022-08-29T18:34:50.569Z,23.60
2022-08-29T18:37:17.816Z,23.60
2022-08-29T18:39:45.828Z,23.50
2022-08-29T18:42:30.406Z,23.40
2022-08-29T18:45:00.218Z,23.40
2022-08-29T18:47:27.272Z,23.30
2022-08-29T18:50:13.384Z,23.10
2022-08-29T18:52:40.627Z,23.10
2022-08-29T18:55:08.056Z,23.20
2022-08-29T18:57:35.329Z,23.20
2022-08-29T19:00:03.336Z,23.20
2022-08-29T19:02:30.439Z,23.20
2022-08-29T19:04:57.599Z,23.10
2022-08-29T19:07:24.845Z,23.20
2022-08-29T19:09:53.070Z,23.30
2022-08-29T19:12:20.141Z,23.30
2022-08-29T19:14:47.288Z,23.30
2022-08-29T19:17:14.464Z,23.30
2022-08-29T19:20:00.793Z,23.10
2022-08-29T19:22:28.678Z,23.00
2022-08-29T19:24:55.681Z,23.10
2022-08-29T19:27:42.226Z,23.00
2022-08-29T19:30:11.319Z,22.80
2022-08-29T19:32:38.619Z,22.50
2022-08-29T19:35:06.450Z,22.60
2022-08-29T19:37:33.788Z,22.40
2022-08-29T19:40:01.237Z,22.20
2022-08-29T19:42:28.539Z,22.10
2022-08-29T19:44:56.390Z,22.00
2022-08-29T19:47:23.993Z,22.00
2022-08-29T19:49:52.411Z,21.70
2022-08-29T19:52:19.418Z,21.70
2022-08-29T19:54:46.595Z,21.60
2022-08-29T19:57:14.563Z,21.50
2022-08-29T19:59:43.593Z,21.50
2022-08-29T20:02:10.829Z,21.40
2022-08-29T20:04:38.393Z,21.40
2022-08-29T20:07:05.771Z,21.40
2022-08-29T20:09:33.119Z,21.20
2022-08-29T20:12:00.815Z,21.30
2022-08-29T20:14:28.072Z,21.30
2022-08-29T20:16:55.265Z,21.40
2022-08-29T20:19:22.459Z,21.30
2022-08-29T20:21:50.517Z,21.20
2022-08-29T20:24:17.941Z,21.10
2022-08-29T20:26:49.615Z,21.10
2022-08-29T20:29:17.282Z,21.00
2022-08-29T20:31:45.195Z,20.90
2022-08-29T20:34:12.560Z,21.00
2022-08-29T20:36:58.191Z,20.80
2022-08-29T20:39:25.716Z,20.80
2022-08-29T20:41:58.042Z,20.70
2022-08-29T20:44:33.491Z,20.60
2022-08-29T20:47:01.280Z,20.50
2022-08-29T20:49:28.377Z,20.40
2022-08-29T20:51:55.611Z,20.30
2022-08-29T20:54:24.545Z,20.40
2022-08-29T20:56:52.153Z,20.40
2022-08-29T20:59:21.627Z,20.20
2022-08-29T21:01:50.009Z,20.30
2022-08-29T21:04:36.190Z,20.10
2022-08-29T21:07:09.288Z,20.00
2022-08-29T21:09:40.483Z,20.10
2022-08-29T21:12:08.355Z,20.20
2022-08-29T21:14:35.709Z,20.20
2022-08-29T21:17:03.141Z,20.20
2022-08-29T21:19:30.302Z,20.10
2022-08-29T21:22:01.772Z,20.00
2022-08-29T21:24:29.657Z,19.90
2022-08-29T21:26:57.142Z,19.80
2022-08-29T21:29:24.896Z,19.80
2022-08-29T21:31:54.050Z,19.70
2022-08-29T21:34:22.336Z,19.70
2022-08-29T21:36:49.916Z,19.60
2022-08-29T21:39:21.570Z,19.70
2022-08-29T21:41:56.580Z,19.70
2022-08-29T21:44:23.881Z,19.60
2022-08-29T21:46:51.062Z,19.60
2022-08-29T21:49:21.532Z,19.60
2022-08-29T21:51:48.944Z,19.60
2022-08-29T21:54:17.809Z,19.40
2022-08-29T21:56:45.570Z,19.40
2022-08-29T21:59:14.078Z,19.30
2022-08-29T22:01:41.597Z,19.30
2022-08-29T22:04:19.395Z,19.30
2022-08-29T22:06:57.214Z,19.30
2022-08-29T22:09:24.294Z,19.30
2022-08-29T22:11:51.961Z,19.30
2022-08-29T22:14:19.190Z,19.40
2022-08-29T22:16:46.285Z,19.40
2022-08-29T22:19:15.242Z,19.40
2022-08-29T22:21:47.972Z,19.40
2022-08-29T22:24:16.641Z,19.50
2022-08-29T22:26:44.869Z,19.40
2022-08-29T22:29:14.196Z,19.40
2022-08-29T22:31:42.664Z,19.40
2022-08-29T22:34:14.469Z,19.30
2022-08-29T22:36:41.830Z,19.30
2022-08-29T22:39:09.476Z,19.30
2022-08-29T22:41:36.745Z,19.20
2022-08-29T22:46:52.925Z,19.30
2022-08-29T22:49:19.979Z,19.20
2022-08-29T22:51:48.257Z,19.10
2022-08-29T22:54:34.005Z,19.10
2022-08-29T22:57:12.112Z,19.20
2022-08-29T22:59:40.361Z,19.30
2022-08-29T23:02:08.015Z,19.20
2022-08-29T23:04:36.004Z,19.10
2022-08-29T23:07:03.781Z,19.00
2022-08-29T23:09:35.616Z,18.90
2022-08-29T23:12:05.425Z,18.80
2022-08-29T23:14:34.866Z,18.80
2022-08-29T23:17:02.618Z,18.90
2022-08-29T23:19:29.699Z,18.90
2022-08-29T23:21:58.145Z,18.90
2022-08-29T23:24:26.307Z,18.80
2022-08-29T23:26:53.583Z,18.70
2022-08-29T23:29:20.889Z,18.60
2022-08-29T23:31:48.042Z,18.60
2022-08-29T23:34:15.111Z,18.60
2022-08-29T23:36:42.155Z,18.50
2022-08-29T23:39:09.291Z,18.60
2022-08-29T23:41:36.696Z,18.50
2022-08-29T23:44:04.143Z,18.50
2022-08-29T23:46:31.226Z,18.60
2022-08-29T23:48:58.528Z,18.60
2022-08-29T23:51:25.546Z,18.60
2022-08-29T23:53:52.609Z,18.60
2022-08-29T23:56:21.607Z,18.60
2022-08-29T23:58:48.661Z,18.60
